Time;durP1;ratioP1;P1;durP2;ratioP2;P2;SDS_P1;SDS_P2;PMS_P1;PMS_P2;Temp;Humidity;BMP_temperature;BMP_pressure;BME280_temperature;BME280_humidity;BME280_pressure;Samples;Min_cycle;Max_cycle;Signal;HPM_P1;HPM_P2
2023/04/05 00:03:18;;;;;;;16.67;8.95;;;;;;;0.00;100.00;59042.03;10285589;28;20792;-64
2023/04/05 00:08:27;;;;;;;16.35;10.43;;;;;;;0.00;100.00;59042.03;10303463;28;20050;-65
2023/04/05 00:13:27;;;;;;;15.68;9.48;;;;;;;0.00;100.00;59042.03;10302332;28;20038;-65
2023/04/05 00:18:32;;;;;;;20.58;10.25;;;;;;;0.00;100.00;59042.03;10283683;28;20035;-65
2023/04/05 00:23:37;;;;;;;23.60;9.63;;;;;;;0.00;100.00;59042.03;10302804;28;20037;-65
2023/04/05 00:28:37;;;;;;;19.40;9.30;;;;;;;0.00;100.00;59042.03;10302146;28;20034;-64
2023/04/05 00:33:38;;;;;;;19.07;9.53;;;;;;;0.00;100.00;59042.03;10302631;28;20030;-64
2023/04/05 00:38:39;;;;;;;17.63;9.32;;;;;;;0.00;100.00;59042.03;10302385;28;20062;-64
2023/04/05 00:43:40;;;;;;;15.75;8.93;;;;;;;0.00;100.00;59042.03;10302346;28;20058;-65
2023/04/05 00:48:41;;;;;;;13.63;7.63;;;;;;;0.00;100.00;59042.03;10301659;28;20022;-65
2023/04/05 00:53:41;;;;;;;14.88;8.20;;;;;;;0.00;100.00;59042.03;10301931;28;20080;-65
2023/04/05 00:58:42;;;;;;;14.32;7.75;;;;;;;0.00;100.00;59042.03;10300449;28;20108;-66
2023/04/05 01:03:48;;;;;;;14.25;7.22;;;;;;;0.00;100.00;59042.03;10300469;28;20366;-64
2023/04/05 01:08:59;;;;;;;11.68;6.30;;;;;;;0.00;100.00;59042.03;10298584;28;20046;-66
2023/04/05 01:14:00;;;;;;;11.35;5.72;;;;;;;0.00;100.00;59042.03;10298457;28;20121;-65
2023/04/05 01:19:03;;;;;;;9.18;5.40;;;;;;;0.00;100.00;59042.03;10300778;28;20038;-65
2023/04/05 01:24:29;;;;;;;11.45;5.82;;;;;;;0.00;100.00;59042.03;10300136;28;20056;-64
2023/04/05 01:29:46;;;;;;;8.55;5.47;;;;;;;0.00;100.00;59042.03;10299725;28;20770;-64
2023/04/05 01:35:03;;;;;;;11.35;6.15;;;;;;;0.00;100.00;59042.03;10294947;28;20045;-66
2023/04/05 01:40:05;;;;;;;9.97;5.47;;;;;;;0.00;100.00;59042.03;10299587;28;20109;-66
2023/04/05 01:45:06;;;;;;;9.82;5.45;;;;;;;0.00;100.00;59042.03;10298879;28;20049;-64
2023/04/05 01:50:07;;;;;;;12.52;6.00;;;;;;;0.00;100.00;59042.03;10298684;28;20022;-65
2023/04/05 01:55:07;;;;;;;11.40;5.68;;;;;;;0.00;100.00;59042.03;10298041;28;20401;-65
2023/04/05 02:00:09;;;;;;;8.57;5.40;;;;;;;0.00;100.00;59042.03;10299383;28;20061;-64
2023/04/05 02:05:09;;;;;;;7.60;4.75;;;;;;;0.00;100.00;59042.03;10298910;28;20034;-64
2023/04/05 02:10:10;;;;;;;5.55;3.75;;;;;;;0.00;100.00;59042.03;10298175;28;20034;-65
2023/04/05 02:15:11;;;;;;;9.43;5.05;;;;;;;0.00;100.00;59042.03;10298511;28;20442;-64
2023/04/05 02:20:13;;;;;;;8.40;5.15;;;;;;;0.00;100.00;59042.03;10298399;28;20128;-64
2023/04/05 02:25:13;;;;;;;8.02;4.88;;;;;;;0.00;100.00;59042.03;10298015;28;20022;-65
2023/04/05 02:30:14;;;;;;;11.43;5.53;;;;;;;0.00;100.00;59042.03;10298285;28;20022;-65
2023/04/05 02:35:16;;;;;;;8.07;4.78;;;;;;;0.00;100.00;59042.03;10298168;28;20034;-65
2023/04/05 02:40:16;;;;;;;10.43;6.00;;;;;;;0.00;100.00;59042.03;10297742;28;20057;-66
2023/04/05 02:45:16;;;;;;;9.93;4.97;;;;;;;0.00;100.00;59042.03;10298281;28;20425;-66
2023/04/05 02:50:19;;;;;;;9.40;5.28;;;;;;;0.00;100.00;59042.03;10297761;28;20269;-66
2023/04/05 02:55:19;;;;;;;6.82;4.43;;;;;;;0.00;100.00;59042.03;10297560;28;20069;-66
2023/04/05 03:00:21;;;;;;;9.68;5.35;;;;;;;0.00;100.00;59042.03;10297713;28;20480;-66
2023/04/05 03:05:21;;;;;;;7.55;5.00;;;;;;;0.00;100.00;59042.03;10297503;28;20521;-66
2023/04/05 03:10:23;;;;;;;7.47;4.77;;;;;;;0.00;100.00;59042.03;10296768;28;20046;-66
2023/04/05 03:15:24;;;;;;;13.43;6.70;;;;;;;0.00;100.00;59042.03;10296488;28;20281;-66
2023/04/05 03:20:24;;;;;;;10.65;6.60;;;;;;;0.00;100.00;59042.03;10298635;28;20035;-65
2023/04/05 03:25:25;;;;;;;11.00;6.60;;;;;;;0.00;100.00;59042.03;10302635;28;20030;-66
2023/04/05 03:30:27;;;;;;;9.13;5.35;;;;;;;0.00;100.00;59042.03;10302079;28;20026;-66
2023/04/05 03:35:30;;;;;;;14.48;5.80;;;;;;;0.00;100.00;59042.03;10282632;28;20556;-65
2023/04/05 03:40:31;;;;;;;12.65;6.05;;;;;;;0.00;100.00;59042.03;10298896;28;20113;-65
2023/04/05 03:45:32;;;;;;;10.07;5.63;;;;;;;0.00;100.00;59042.03;10299407;28;20034;-66
2023/04/05 03:50:33;;;;;;;7.70;5.13;;;;;;;0.00;100.00;59042.03;10283621;28;20506;-65
2023/04/05 03:55:33;;;;;;;11.27;5.77;;;;;;;0.00;100.00;59042.03;10301373;28;20450;-67
2023/04/05 04:00:34;;;;;;;10.02;6.45;;;;;;;0.00;100.00;59042.03;10301182;28;20277;-66
2023/04/05 04:05:37;;;;;;;12.52;7.03;;;;;;;0.00;100.00;59042.03;10299342;28;20037;-65
2023/04/05 04:10:38;;;;;;;10.63;6.57;;;;;;;0.00;100.00;59042.03;10479633;22;20065;-65
2023/04/05 04:15:38;;;;;;;10.10;6.93;;;;;;;0.00;100.00;59042.03;10380352;28;20033;-65
2023/04/05 04:20:39;;;;;;;10.70;7.17;;;;;;;0.00;100.00;59042.03;10374105;28;20029;-66
2023/04/05 04:25:40;;;;;;;11.05;7.13;;;;;;;0.00;100.00;59042.03;10382436;28;20084;-66
2023/04/05 04:30:42;;;;;;;11.10;7.22;;;;;;;0.00;100.00;59042.03;10381578;28;20036;-66
2023/04/05 04:35:45;;;;;;;15.63;8.85;;;;;;;0.00;100.00;59042.03;10380246;28;20039;-66
2023/04/05 04:40:46;;;;;;;11.35;6.97;;;;;;;0.00;100.00;59042.03;10379936;28;20064;-66
2023/04/05 04:45:48;;;;;;;12.80;7.15;;;;;;;0.00;100.00;59042.03;10374972;28;20033;-65
2023/04/05 04:50:49;;;;;;;11.10;5.60;;;;;;;0.00;100.00;59042.03;10377089;28;20025;-66
2023/04/05 04:55:49;;;;;;;14.77;8.30;;;;;;;0.00;100.00;59042.03;10381369;28;20029;-67
2023/04/05 05:00:51;;;;;;;11.20;6.22;;;;;;;0.00;100.00;59042.03;10380109;28;20114;-66
2023/04/05 05:05:52;;;;;;;8.45;5.47;;;;;;;0.00;100.00;59042.03;10378060;28;20021;-66
2023/04/05 05:10:53;;;;;;;7.85;5.43;;;;;;;0.00;100.00;59042.03;10378193;28;20352;-68
2023/04/05 05:15:53;;;;;;;7.20;4.40;;;;;;;0.00;100.00;59042.03;10376475;28;20026;-65
2023/04/05 05:20:53;;;;;;;10.95;6.95;;;;;;;0.00;100.00;59042.03;10379639;28;20072;-67
2023/04/05 05:26:00;;;;;;;8.57;4.70;;;;;;;0.00;100.00;59042.03;10369892;28;20068;-67
2023/04/05 05:31:02;;;;;;;8.43;5.90;;;;;;;0.00;100.00;59042.03;10374057;28;20083;-67
2023/04/05 05:36:03;;;;;;;6.70;3.72;;;;;;;0.00;100.00;59042.03;10378698;28;20116;-67
2023/04/05 05:41:04;;;;;;;3.90;2.53;;;;;;;0.00;100.00;59042.03;10378483;28;20037;-68
2023/04/05 05:46:04;;;;;;;5.85;3.20;;;;;;;0.00;100.00;59042.03;10378300;28;20026;-67
2023/04/05 05:51:08;;;;;;;3.78;2.22;;;;;;;0.00;100.00;59042.03;10378638;28;20021;-67
2023/04/05 05:56:10;;;;;;;9.77;3.95;;;;;;;0.00;100.00;59042.03;10374739;28;20057;-67
2023/04/05 06:01:13;;;;;;;4.90;3.63;;;;;;;0.00;100.00;59042.03;10377975;28;20514;-67
2023/04/05 06:06:14;;;;;;;6.60;3.63;;;;;;;0.00;100.00;59042.03;10379036;28;20494;-66
2023/04/05 06:11:21;;;;;;;7.03;4.10;;;;;;;0.00;100.00;59042.03;10339950;28;1134462;-66
2023/04/05 06:16:22;;;;;;;7.90;4.45;;;;;;;0.00;100.00;59042.03;10378807;28;20653;-67
2023/04/05 06:21:23;;;;;;;11.85;3.92;;;;;;;0.00;100.00;59042.03;10379808;28;20056;-66
2023/04/05 06:26:27;;;;;;;15.23;4.70;;;;;;;0.00;100.00;59042.03;10379192;28;20420;-66
2023/04/05 06:31:32;;;;;;;4.82;2.55;;;;;;;0.00;100.00;59042.03;10378203;28;20078;-66
2023/04/05 06:36:33;;;;;;;3.40;2.65;;;;;;;0.00;100.00;59042.03;10379368;28;20045;-66
2023/04/05 06:41:33;;;;;;;10.52;2.70;;;;;;;0.00;100.00;59042.03;10378353;28;20116;-66
2023/04/05 06:46:34;;;;;;;3.80;2.77;;;;;;;0.00;100.00;59042.03;10379821;28;20030;-66
2023/04/05 06:51:34;;;;;;;10.90;4.05;;;;;;;0.00;100.00;59042.03;10379690;28;20060;-67
2023/04/05 06:56:35;;;;;;;4.38;2.22;;;;;;;0.00;100.00;59042.03;10385695;28;20014;-67
2023/04/05 07:01:35;;;;;;;6.57;2.90;;;;;;;0.00;100.00;59042.03;10387926;28;20398;-66
2023/04/05 07:06:37;;;;;;;7.93;1.73;;;;;;;0.00;100.00;59042.03;10387676;28;20017;-67
2023/04/05 07:11:38;;;;;;;3.95;2.25;;;;;;;0.00;100.00;59042.03;10387132;28;20041;-65
2023/04/05 07:16:39;;;;;;;2.60;1.77;;;;;;;0.00;100.00;59042.03;10386859;28;20042;-66
2023/04/05 07:21:39;;;;;;;4.03;1.88;;;;;;;0.00;100.00;59042.03;10386711;28;20025;-66
2023/04/05 07:26:40;;;;;;;4.78;1.98;;;;;;;0.00;100.00;59042.03;10386892;28;20694;-66
2023/04/05 07:31:40;;;;;;;5.40;1.80;;;;;;;0.00;100.00;59042.03;10385968;28;20030;-66
2023/04/05 07:36:41;;;;;;;8.10;3.30;;;;;;;0.00;100.00;59042.03;10386696;28;20029;-66
2023/04/05 07:41:41;;;;;;;8.13;1.60;;;;;;;0.00;100.00;59042.03;10385782;28;20362;-66
2023/04/05 07:46:43;;;;;;;2.90;1.63;;;;;;;0.00;100.00;59042.03;10385572;28;20033;-66
2023/04/05 07:51:45;;;;;;;4.05;2.55;;;;;;;0.00;100.00;59042.03;10385432;28;20435;-66
2023/04/05 07:56:45;;;;;;;1.67;1.42;;;;;;;0.00;100.00;59042.03;10377993;28;20021;-66
2023/04/05 08:01:46;;;;;;;4.68;2.10;;;;;;;0.00;100.00;59042.03;10385125;28;20468;-66
2023/04/05 08:06:46;;;;;;;3.30;1.80;;;;;;;0.00;100.00;59042.03;10384569;28;20037;-65
2023/04/05 08:11:47;;;;;;;8.18;2.25;;;;;;;0.00;100.00;59042.03;10384138;28;20049;-65
2023/04/05 08:16:49;;;;;;;3.83;2.05;;;;;;;0.00;100.00;59042.03;10384951;28;20042;-66
2023/04/05 08:21:51;;;;;;;2.88;1.85;;;;;;;0.00;100.00;59042.03;10385038;28;20119;-66
2023/04/05 08:26:51;;;;;;;9.07;2.70;;;;;;;0.00;100.00;59042.03;10383841;28;20534;-66
2023/04/05 08:31:56;;;;;;;5.50;2.13;;;;;;;0.00;100.00;59042.03;10383510;28;20033;-66
2023/04/05 08:36:59;;;;;;;3.15;2.05;;;;;;;0.00;100.00;59042.03;10383816;28;20412;-66
2023/04/05 08:42:07;;;;;;;3.42;2.33;;;;;;;0.00;100.00;59042.03;10384078;28;20026;-66
2023/04/05 08:47:13;;;;;;;2.03;1.58;;;;;;;0.00;100.00;59042.03;10383506;28;20036;-66
2023/04/05 08:52:14;;;;;;;3.75;2.30;;;;;;;0.00;100.00;59042.03;10383503;28;20124;-66
2023/04/05 08:57:15;;;;;;;1.45;1.20;;;;;;;0.00;100.00;59042.03;10382530;28;20086;-65
2023/04/05 09:02:18;;;;;;;4.45;1.50;;;;;;;0.00;100.00;59042.03;10383405;28;20724;-65
2023/04/05 09:07:20;;;;;;;3.95;2.45;;;;;;;0.00;100.00;59042.03;10382172;28;20023;-67
2023/04/05 09:12:21;;;;;;;3.60;2.63;;;;;;;0.00;100.00;59042.03;10382062;28;20050;-66
2023/04/05 09:17:22;;;;;;;5.07;2.83;;;;;;;0.00;100.00;59042.03;10381555;28;20037;-66
2023/04/05 09:22:23;;;;;;;2.88;2.55;;;;;;;0.00;100.00;59042.03;10382406;28;20033;-66
2023/04/05 09:27:23;;;;;;;5.88;3.00;;;;;;;0.00;100.00;59042.03;10382152;28;20040;-66
2023/04/05 09:32:27;;;;;;;5.85;3.55;;;;;;;0.00;100.00;59042.03;10381413;28;20038;-66
2023/04/05 09:37:27;;;;;;;5.07;2.80;;;;;;;0.00;100.00;59042.03;10381418;28;20099;-65
2023/04/05 09:42:41;;;;;;;10.27;3.45;;;;;;;0.00;100.00;59042.03;10381902;28;20514;-66
2023/04/05 09:47:41;;;;;;;4.10;2.72;;;;;;;0.00;100.00;59042.03;10370350;28;20464;-66
2023/04/05 09:52:43;;;;;;;4.37;2.50;;;;;;;0.00;100.00;59042.03;10381252;28;20021;-66
2023/04/05 09:57:43;;;;;;;4.97;2.70;;;;;;;0.00;100.00;59042.03;10381226;28;20292;-65
2023/04/05 10:02:46;;;;;;;6.78;2.78;;;;;;;0.00;100.00;59042.03;10380201;28;20040;-66
2023/04/05 10:07:46;;;;;;;5.22;1.83;;;;;;;0.00;100.00;59042.03;10380649;28;20153;-66
2023/04/05 10:12:48;;;;;;;4.43;2.78;;;;;;;0.00;100.00;59042.03;10380054;28;20178;-66
2023/04/05 10:18:13;;;;;;;4.72;3.08;;;;;;;0.00;100.00;59042.03;10380053;28;20036;-66
2023/04/05 10:23:23;;;;;;;4.32;2.60;;;;;;;0.00;100.00;59042.03;10379412;28;20445;-65
2023/04/05 10:28:31;;;;;;;3.63;2.65;;;;;;;0.00;100.00;59042.03;10380124;28;20036;-66
2023/04/05 10:33:40;;;;;;;8.27;3.63;;;;;;;0.00;100.00;59042.03;10378209;28;20044;-65
2023/04/05 10:39:10;;;;;;;5.25;3.50;;;;;;;0.00;100.00;59042.03;10380159;28;20713;-66
2023/04/05 10:44:11;;;;;;;6.35;3.97;;;;;;;0.00;100.00;59042.03;10378986;28;20426;-67
2023/04/05 10:49:38;;;;;;;5.97;3.60;;;;;;;0.00;100.00;59042.03;10375580;28;20098;-67
2023/04/05 10:54:40;;;;;;;5.15;3.50;;;;;;;0.00;100.00;59042.03;10379452;28;20063;-65
2023/04/05 10:59:45;;;;;;;3.90;2.58;;;;;;;0.00;100.00;59042.03;10377985;28;20033;-66
2023/04/05 11:04:54;;;;;;;3.78;2.80;;;;;;;0.00;100.00;59042.03;10378273;28;20807;-66
2023/04/05 11:10:00;;;;;;;9.27;3.38;;;;;;;0.00;100.00;59042.03;10379219;28;20050;-66
2023/04/05 11:15:29;;;;;;;4.85;3.38;;;;;;;0.00;100.00;59042.03;10378485;28;20360;-66
2023/04/05 11:20:54;;;;;;;7.22;3.95;;;;;;;0.00;100.00;59042.03;10379275;28;20029;-66
2023/04/05 11:26:02;;;;;;;4.78;3.13;;;;;;;0.00;100.00;59042.03;10367833;28;20769;-66
2023/04/05 11:31:19;;;;;;;5.60;4.30;;;;;;;0.00;100.00;59042.03;10370028;28;20034;-66
2023/04/05 11:36:31;;;;;;;5.25;3.70;;;;;;;0.00;100.00;59042.03;10366936;28;20384;-66
2023/04/05 11:41:34;;;;;;;6.30;3.13;;;;;;;0.00;100.00;59042.03;10374015;28;20033;-66
2023/04/05 11:46:35;;;;;;;7.07;4.25;;;;;;;0.00;100.00;59042.03;10376498;28;20040;-66
2023/04/05 11:51:36;;;;;;;8.18;4.00;;;;;;;0.00;100.00;59042.03;10379117;28;20444;-67
2023/04/05 11:56:36;;;;;;;12.82;4.05;;;;;;;0.00;100.00;59042.03;10377800;28;20037;-67
2023/04/05 12:01:38;;;;;;;4.63;3.60;;;;;;;0.00;100.00;59042.03;10379726;28;20896;-66
2023/04/05 12:06:38;;;;;;;6.78;4.53;;;;;;;0.00;100.00;59042.03;10376884;28;20063;-68
2023/04/05 12:11:40;;;;;;;7.55;5.35;;;;;;;0.00;100.00;59042.03;10375549;28;20063;-67
2023/04/05 12:16:49;;;;;;;5.93;4.38;;;;;;;0.00;100.00;59042.03;10388774;28;20064;-67
2023/04/05 12:21:50;;;;;;;4.85;3.80;;;;;;;0.00;100.00;59042.03;10374553;28;20025;-69
2023/04/05 12:26:50;;;;;;;10.73;5.45;;;;;;;0.00;100.00;59042.03;10376200;28;20079;-67
2023/04/05 12:31:50;;;;;;;6.72;4.40;;;;;;;0.00;100.00;59042.03;10378082;28;20442;-68
2023/04/05 12:36:52;;;;;;;7.07;4.82;;;;;;;0.00;100.00;59042.03;10378154;28;20040;-67
2023/04/05 12:41:58;;;;;;;6.88;4.32;;;;;;;0.00;100.00;59042.03;10376489;28;20037;-67
2023/04/05 12:47:01;;;;;;;10.20;5.82;;;;;;;0.00;100.00;59042.03;10377810;28;20740;-68
2023/04/05 12:52:02;;;;;;;12.02;5.93;;;;;;;0.00;100.00;59042.03;10375849;28;20033;-67
2023/04/05 12:57:07;;;;;;;14.25;6.47;;;;;;;0.00;100.00;59042.03;10376137;28;20030;-65
2023/04/05 13:02:07;;;;;;;7.38;4.82;;;;;;;0.00;100.00;59042.03;10375784;28;20083;-66
2023/04/05 13:07:08;;;;;;;8.55;5.57;;;;;;;0.00;100.00;59042.03;10372534;28;20017;-66
2023/04/05 13:12:08;;;;;;;9.95;5.78;;;;;;;0.00;100.00;59042.03;10376147;28;20516;-66
2023/04/05 13:17:09;;;;;;;8.20;5.22;;;;;;;0.00;100.00;59042.03;10376421;28;20525;-69
2023/04/05 13:22:09;;;;;;;14.18;5.35;;;;;;;0.00;100.00;59042.03;10373860;28;20029;-69
2023/04/05 13:27:10;;;;;;;11.43;5.93;;;;;;;0.00;100.00;59042.03;10374962;28;20029;-68
2023/04/05 13:32:10;;;;;;;15.05;4.65;;;;;;;0.00;100.00;59042.03;10372818;28;20498;-69
2023/04/05 13:37:11;;;;;;;8.75;5.50;;;;;;;0.00;100.00;59042.03;10373919;28;20507;-68
2023/04/05 13:42:11;;;;;;;9.52;6.20;;;;;;;0.00;100.00;59042.03;10372410;28;20025;-69
2023/04/05 13:47:13;;;;;;;11.52;6.18;;;;;;;0.00;100.00;59042.03;10374242;28;20029;-69
2023/04/05 13:52:14;;;;;;;9.80;6.10;;;;;;;0.00;100.00;59042.03;10381844;28;20771;-70
2023/04/05 13:57:14;;;;;;;8.90;6.00;;;;;;;0.00;100.00;59042.03;10375835;28;20103;-70
2023/04/05 14:02:18;;;;;;;16.42;7.32;;;;;;;0.00;100.00;59042.03;10373011;28;20032;-70
2023/04/05 14:07:20;;;;;;;9.43;5.80;;;;;;;0.00;100.00;59042.03;10372394;28;20029;-71
2023/04/05 14:12:20;;;;;;;21.33;7.93;;;;;;;0.00;100.00;59042.03;10372823;28;20085;-71
2023/04/05 14:17:21;;;;;;;9.45;7.30;;;;;;;0.00;100.00;59042.03;10371200;28;20048;-70
2023/04/05 14:22:21;;;;;;;11.00;6.63;;;;;;;0.00;100.00;59042.03;10372863;28;20115;-70
2023/04/05 14:27:25;;;;;;;8.73;6.28;;;;;;;0.00;100.00;59042.03;10373860;28;20033;-71
2023/04/05 14:32:25;;;;;;;11.77;6.57;;;;;;;0.00;100.00;59042.03;10374475;28;20025;-71
2023/04/05 14:37:26;;;;;;;12.90;7.18;;;;;;;0.00;100.00;59042.03;10351731;28;20059;-71
2023/04/05 14:42:26;;;;;;;12.02;7.70;;;;;;;0.00;100.00;59042.03;10361280;28;20423;-70
2023/04/05 14:47:27;;;;;;;12.90;6.88;;;;;;;0.00;100.00;59042.03;10380203;28;20033;-73
2023/04/05 14:52:28;;;;;;;11.32;8.00;;;;;;;0.00;100.00;59042.03;10378548;28;20029;-74
2023/04/05 14:57:28;;;;;;;17.58;8.48;;;;;;;0.00;100.00;59042.03;10380329;28;20037;-75
2023/04/05 15:02:29;;;;;;;12.48;7.88;;;;;;;0.00;100.00;59042.03;10379277;28;20491;-70
2023/04/05 15:07:30;;;;;;;13.63;8.05;;;;;;;0.00;100.00;59042.03;10349659;28;20036;-70
2023/04/05 15:12:31;;;;;;;12.50;8.82;;;;;;;0.00;100.00;59042.03;10379238;28;20053;-71
2023/04/05 15:17:32;;;;;;;16.90;9.68;;;;;;;0.00;100.00;59042.03;10383745;28;20037;-70
2023/04/05 15:22:34;;;;;;;17.65;7.90;;;;;;;0.00;100.00;59042.03;10387907;28;20045;-71
2023/04/05 15:27:35;;;;;;;18.50;9.23;;;;;;;0.00;100.00;59042.03;10385750;28;20399;-71
2023/04/05 15:32:36;;;;;;;13.80;8.63;;;;;;;0.00;100.00;59042.03;10386668;28;20041;-71
2023/04/05 15:37:37;;;;;;;18.40;10.45;;;;;;;0.00;100.00;59042.03;10386484;28;20883;-71
2023/04/05 15:42:37;;;;;;;17.73;10.85;;;;;;;0.00;100.00;59042.03;10386025;28;20348;-71
2023/04/05 15:47:38;;;;;;;18.58;8.65;;;;;;;0.00;100.00;59042.03;10385035;28;20036;-73
2023/04/05 15:52:39;;;;;;;17.73;10.75;;;;;;;0.00;100.00;59042.03;10386561;28;20037;-71
2023/04/05 15:57:39;;;;;;;17.70;10.65;;;;;;;0.00;100.00;59042.03;10385916;28;20037;-73
2023/04/05 16:02:40;;;;;;;22.17;11.57;;;;;;;0.00;100.00;59042.03;10385850;28;20037;-71
2023/04/05 16:07:40;;;;;;;24.65;10.60;;;;;;;0.00;100.00;59042.03;10384261;28;20865;-70
2023/04/05 16:12:41;;;;;;;20.05;10.45;;;;;;;0.00;100.00;59042.03;10384998;28;20045;-70
2023/04/05 16:17:41;;;;;;;16.83;10.32;;;;;;;0.00;100.00;59042.03;10364551;28;20075;-71
2023/04/05 16:22:43;;;;;;;19.45;10.02;;;;;;;0.00;100.00;59042.03;10363970;28;20148;-71
2023/04/05 16:27:44;;;;;;;16.08;8.77;;;;;;;0.00;100.00;59042.03;10370321;28;20372;-71
2023/04/05 16:32:44;;;;;;;12.93;8.63;;;;;;;0.00;100.00;59042.03;10383219;28;20044;-71
2023/04/05 16:37:45;;;;;;;14.77;9.52;;;;;;;0.00;100.00;59042.03;10385140;28;20491;-71
2023/04/05 16:42:45;;;;;;;20.65;11.38;;;;;;;0.00;100.00;59042.03;10373559;28;20531;-73
2023/04/05 16:47:46;;;;;;;15.75;9.20;;;;;;;0.00;100.00;59042.03;10373696;28;20028;-70
2023/04/05 16:52:46;;;;;;;17.92;10.32;;;;;;;0.00;100.00;59042.03;10372433;28;20503;-72
2023/04/05 16:57:47;;;;;;;18.95;10.63;;;;;;;0.00;100.00;59042.03;10344748;28;20483;-71
2023/04/05 17:02:48;;;;;;;22.27;10.07;;;;;;;0.00;100.00;59042.03;10356944;28;20034;-72
2023/04/05 17:07:49;;;;;;;15.52;9.98;;;;;;;0.00;100.00;59042.03;10360412;28;20091;-77
2023/04/05 17:12:49;;;;;;;16.75;10.05;;;;;;;0.00;100.00;59042.03;10357925;28;20111;-74
2023/04/05 17:17:50;;;;;;;20.27;11.20;;;;;;;0.00;100.00;59042.03;10358333;28;20095;-73
2023/04/05 17:22:51;;;;;;;15.75;9.88;;;;;;;0.00;100.00;59042.03;10355400;28;20033;-78
2023/04/05 17:27:51;;;;;;;17.15;10.18;;;;;;;0.00;100.00;59042.03;10345740;28;20446;-75
2023/04/05 17:32:52;;;;;;;22.23;11.80;;;;;;;0.00;100.00;59042.03;10354218;28;20351;-75
2023/04/05 17:37:52;;;;;;;20.20;11.15;;;;;;;0.00;100.00;59042.03;10367210;28;20291;-75
2023/04/05 17:42:53;;;;;;;26.80;11.23;;;;;;;0.00;100.00;59042.03;10349281;28;20033;-74
2023/04/05 17:47:53;;;;;;;22.92;12.48;;;;;;;0.00;100.00;59042.03;10353572;28;20026;-73
2023/04/05 17:52:54;;;;;;;19.00;12.50;;;;;;;0.00;100.00;59042.03;10358957;28;20124;-70
2023/04/05 17:57:54;;;;;;;26.98;12.13;;;;;;;0.00;100.00;59042.03;10346474;28;20304;-71
2023/04/05 18:02:54;;;;;;;18.00;11.18;;;;;;;0.00;100.00;59042.03;10358622;28;20044;-73
2023/04/05 18:07:55;;;;;;;23.85;12.07;;;;;;;0.00;100.00;59042.03;10352991;28;20701;-71
2023/04/05 18:12:55;;;;;;;21.50;12.17;;;;;;;0.00;100.00;59042.03;10541973;22;20053;-72
2023/04/05 18:17:56;;;;;;;20.08;11.70;;;;;;;0.00;100.00;59042.03;10399573;28;20319;-71
2023/04/05 18:22:59;;;;;;;17.45;10.07;;;;;;;0.00;100.00;59042.03;10401468;28;20526;-71
2023/04/05 18:28:00;;;;;;;21.30;11.25;;;;;;;0.00;100.00;59042.03;10382701;28;20020;-72
2023/04/05 18:33:00;;;;;;;20.05;11.30;;;;;;;0.00;100.00;59042.03;10392554;28;20033;-72
2023/04/05 18:38:01;;;;;;;20.52;11.80;;;;;;;0.00;100.00;59042.03;10393750;28;20043;-71
2023/04/05 18:43:01;;;;;;;20.88;10.32;;;;;;;0.00;100.00;59042.03;10392849;28;20032;-71
2023/04/05 18:48:02;;;;;;;17.60;11.02;;;;;;;0.00;100.00;59042.03;10407570;28;20452;-70
2023/04/05 18:53:02;;;;;;;20.25;11.15;;;;;;;0.00;100.00;59042.03;10403681;28;20025;-71
2023/04/05 18:58:03;;;;;;;17.33;11.18;;;;;;;0.00;100.00;59042.03;10408784;28;20048;-70
2023/04/05 19:03:03;;;;;;;20.75;10.25;;;;;;;0.00;100.00;59042.03;10403123;28;20041;-70
2023/04/05 19:08:04;;;;;;;25.73;11.73;;;;;;;0.00;100.00;59042.03;10401667;28;20034;-72
2023/04/05 19:13:05;;;;;;;19.75;11.95;;;;;;;0.00;100.00;59042.03;10413394;28;20060;-72
2023/04/05 19:18:05;;;;;;;20.95;11.88;;;;;;;0.00;100.00;59042.03;10402827;28;20086;-71
2023/04/05 19:23:05;;;;;;;16.52;10.10;;;;;;;0.00;100.00;59042.03;10400401;28;20480;-70
2023/04/05 19:28:06;;;;;;;18.42;10.75;;;;;;;0.00;100.00;59042.03;10406653;28;20394;-71
2023/04/05 19:33:06;;;;;;;20.30;9.95;;;;;;;0.00;100.00;59042.03;10395845;28;20083;-70
2023/04/05 19:38:11;;;;;;;18.85;10.80;;;;;;;0.00;100.00;59042.03;10401990;28;20511;-71
2023/04/05 19:43:12;;;;;;;20.48;10.95;;;;;;;0.00;100.00;59042.03;10394022;28;20052;-71
2023/04/05 19:48:37;;;;;;;19.30;10.68;;;;;;;0.00;100.00;59042.03;10403400;28;20036;-70
2023/04/05 19:53:48;;;;;;;22.48;11.57;;;;;;;0.00;100.00;59042.03;10396967;28;20037;-69
2023/04/05 19:59:12;;;;;;;21.85;11.85;;;;;;;0.00;100.00;59042.03;10396898;28;20045;-68
2023/04/05 20:04:18;;;;;;;23.00;11.88;;;;;;;0.00;100.00;59042.03;10399026;28;20053;-69
2023/04/05 20:09:20;;;;;;;31.42;11.57;;;;;;;0.00;100.00;59042.03;10397542;28;20037;-68
2023/04/05 20:14:30;;;;;;;23.45;12.30;;;;;;;0.00;100.00;59042.03;10399968;28;20037;-71
2023/04/05 20:19:31;;;;;;;19.00;10.85;;;;;;;0.00;100.00;59042.03;10410114;28;20131;-71
2023/04/05 20:24:32;;;;;;;21.30;12.18;;;;;;;0.00;100.00;59042.03;10395495;28;20086;-70
2023/04/05 20:29:34;;;;;;;19.17;10.60;;;;;;;0.00;100.00;59042.03;10396556;28;20029;-70
2023/04/05 20:34:36;;;;;;;21.75;11.48;;;;;;;0.00;100.00;59042.03;10395433;28;20034;-70
2023/04/05 20:39:37;;;;;;;20.58;11.27;;;;;;;0.00;100.00;59042.03;10397361;28;20038;-69
2023/04/05 20:44:37;;;;;;;26.17;12.15;;;;;;;0.00;100.00;59042.03;10390624;28;20033;-71
2023/04/05 20:49:38;;;;;;;16.40;10.05;;;;;;;0.00;100.00;59042.03;10411252;28;20138;-69
2023/04/05 20:54:38;;;;;;;21.38;11.75;;;;;;;0.00;100.00;59042.03;10410775;28;20071;-69
2023/04/05 20:59:39;;;;;;;27.02;11.82;;;;;;;0.00;100.00;59042.03;10421950;28;20079;-69
2023/04/05 21:04:40;;;;;;;18.38;10.57;;;;;;;0.00;100.00;59042.03;10549744;22;20856;-69
2023/04/05 21:09:41;;;;;;;24.02;11.30;;;;;;;0.00;100.00;59042.03;10376704;28;20044;-70
2023/04/05 21:14:41;;;;;;;15.52;9.07;;;;;;;0.00;100.00;59042.03;10379314;28;20033;-69
2023/04/05 21:19:42;;;;;;;20.02;10.13;;;;;;;0.00;100.00;59042.03;10378964;28;20082;-70
2023/04/05 21:24:42;;;;;;;19.05;9.50;;;;;;;0.00;100.00;59042.03;10369955;28;20038;-70
2023/04/05 21:29:43;;;;;;;18.05;9.75;;;;;;;0.00;100.00;59042.03;10375024;28;20026;-69
2023/04/05 21:34:43;;;;;;;8.23;4.28;;;;;;;0.00;100.00;59042.03;10379257;28;20017;-69
2023/04/05 21:39:44;;;;;;;12.75;8.23;;;;;;;0.00;100.00;59042.03;10378878;28;20018;-70
2023/04/05 21:44:44;;;;;;;13.00;8.57;;;;;;;0.00;100.00;59042.03;10380206;28;20087;-68
2023/04/05 21:49:45;;;;;;;15.15;8.48;;;;;;;0.00;100.00;59042.03;10379114;28;20021;-68
2023/04/05 21:54:46;;;;;;;15.90;9.25;;;;;;;0.00;100.00;59042.03;10377356;28;20044;-70
2023/04/05 21:59:46;;;;;;;20.35;9.68;;;;;;;0.00;100.00;59042.03;10376906;28;20773;-70
2023/04/05 22:04:47;;;;;;;15.50;8.93;;;;;;;0.00;100.00;59042.03;10376212;28;20519;-70
2023/04/05 22:09:47;;;;;;;15.68;8.80;;;;;;;0.00;100.00;59042.03;10377889;28;20021;-69
2023/04/05 22:14:48;;;;;;;12.25;6.85;;;;;;;0.00;100.00;59042.03;10377525;28;20033;-68
2023/04/05 22:19:48;;;;;;;10.18;7.05;;;;;;;0.00;100.00;59042.03;10377567;28;20026;-69
2023/04/05 22:24:49;;;;;;;15.95;8.55;;;;;;;0.00;100.00;59042.03;10378740;28;20030;-69
2023/04/05 22:29:51;;;;;;;16.25;7.22;;;;;;;0.00;100.00;59042.03;10377178;28;20024;-68
2023/04/05 22:34:52;;;;;;;13.35;7.22;;;;;;;0.00;100.00;59042.03;10375580;28;20391;-69
2023/04/05 22:39:52;;;;;;;18.27;7.57;;;;;;;0.00;100.00;59042.03;10376774;28;20025;-68
2023/04/05 22:44:53;;;;;;;13.73;7.68;;;;;;;0.00;100.00;59042.03;10358827;28;20025;-69
2023/04/05 22:49:53;;;;;;;14.95;7.40;;;;;;;0.00;100.00;59042.03;10389150;28;20018;-68
2023/04/05 22:54:54;;;;;;;14.35;7.82;;;;;;;0.00;100.00;59042.03;10381148;28;20804;-69
2023/04/05 22:59:54;;;;;;;9.73;6.70;;;;;;;0.00;100.00;59042.03;10364190;28;20541;-69
2023/04/05 23:04:55;;;;;;;13.07;7.15;;;;;;;0.00;100.00;59042.03;10380182;28;20136;-68
2023/04/05 23:09:56;;;;;;;11.40;7.25;;;;;;;0.00;100.00;59042.03;10380810;28;20418;-69
2023/04/05 23:14:57;;;;;;;12.10;7.85;;;;;;;0.00;100.00;59042.03;10378215;28;20049;-69